sensor_id;sensor_type;location;lat;lon;timestamp;P1;durP1;ratioP1;P2;durP2;ratioP2
7583;SDS011;3833;41.764;26.204;2022-08-30T00:00:54;19.07;;;6.40;;
7583;SDS011;3833;41.764;26.204;2022-08-30T00:03:32;13.77;;;5.67;;
7583;SDS011;3833;41.764;26.204;2022-08-30T00:06:00;12.77;;;4.70;;
7583;SDS011;3833;41.764;26.204;2022-08-30T00:08:30;12.30;;;4.90;;
7583;SDS011;3833;41.764;26.204;2022-08-30T00:10:57;22.60;;;5.97;;
7583;SDS011;3833;41.764;26.204;2022-08-30T00:13:24;13.17;;;5.03;;
7583;SDS011;3833;41.764;26.204;2022-08-30T00:15:51;14.30;;;5.43;;
7583;SDS011;3833;41.764;26.204;2022-08-30T00:18:19;22.13;;;6.13;;
7583;SDS011;3833;41.764;26.204;2022-08-30T00:20:47;17.93;;;6.23;;
7583;SDS011;3833;41.764;26.204;2022-08-30T00:23:15;15.20;;;6.10;;
7583;SDS011;3833;41.764;26.204;2022-08-30T00:25:43;13.37;;;5.23;;
7583;SDS011;3833;41.764;26.204;2022-08-30T00:28:10;14.43;;;6.40;;
7583;SDS011;3833;41.764;26.204;2022-08-30T00:30:38;11.43;;;5.73;;
7583;SDS011;3833;41.764;26.204;2022-08-30T00:33:06;14.33;;;5.67;;
7583;SDS011;3833;41.764;26.204;2022-08-30T00:35:33;15.67;;;5.60;;
7583;SDS011;3833;41.764;26.204;2022-08-30T00:38:01;10.37;;;6.13;;
7583;SDS011;3833;41.764;26.204;2022-08-30T00:40:28;17.50;;;5.57;;
7583;SDS011;3833;41.764;26.204;2022-08-30T00:42:55;19.90;;;5.97;;
7583;SDS011;3833;41.764;26.204;2022-08-30T00:45:24;12.83;;;5.80;;
7583;SDS011;3833;41.764;26.204;2022-08-30T00:47:53;13.83;;;5.70;;
7583;SDS011;3833;41.764;26.204;2022-08-30T00:50:22;15.00;;;6.50;;
7583;SDS011;3833;41.764;26.204;2022-08-30T00:52:57;10.97;;;5.37;;
7583;SDS011;3833;41.764;26.204;2022-08-30T00:55:29;14.00;;;5.83;;
7583;SDS011;3833;41.764;26.204;2022-08-30T00:57:57;14.67;;;5.50;;
7583;SDS011;3833;41.764;26.204;2022-08-30T01:00:27;13.23;;;6.17;;
7583;SDS011;3833;41.764;26.204;2022-08-30T01:02:57;13.83;;;5.47;;
7583;SDS011;3833;41.764;26.204;2022-08-30T01:05:23;14.90;;;6.30;;
7583;SDS011;3833;41.764;26.204;2022-08-30T01:07:50;14.73;;;5.33;;
7583;SDS011;3833;41.764;26.204;2022-08-30T01:10:19;12.67;;;5.97;;
7583;SDS011;3833;41.764;26.204;2022-08-30T01:12:47;11.33;;;5.40;;
7583;SDS011;3833;41.764;26.204;2022-08-30T01:15:14;11.33;;;6.27;;
7583;SDS011;3833;41.764;26.204;2022-08-30T01:17:42;14.07;;;5.57;;
7583;SDS011;3833;41.764;26.204;2022-08-30T01:20:12;15.80;;;5.80;;
7583;SDS011;3833;41.764;26.204;2022-08-30T01:22:42;14.13;;;5.70;;
7583;SDS011;3833;41.764;26.204;2022-08-30T01:25:13;12.60;;;5.43;;
7583;SDS011;3833;41.764;26.204;2022-08-30T01:27:43;15.03;;;6.67;;
7583;SDS011;3833;41.764;26.204;2022-08-30T01:30:15;14.33;;;5.83;;
7583;SDS011;3833;41.764;26.204;2022-08-30T01:32:43;12.53;;;6.17;;
7583;SDS011;3833;41.764;26.204;2022-08-30T01:35:13;21.27;;;6.00;;
7583;SDS011;3833;41.764;26.204;2022-08-30T01:37:42;11.63;;;6.07;;
7583;SDS011;3833;41.764;26.204;2022-08-30T01:40:10;12.60;;;6.53;;
7583;SDS011;3833;41.764;26.204;2022-08-30T01:42:39;19.53;;;6.70;;
7583;SDS011;3833;41.764;26.204;2022-08-30T01:45:07;11.90;;;6.00;;
7583;SDS011;3833;41.764;26.204;2022-08-30T01:47:34;9.60;;;5.77;;
7583;SDS011;3833;41.764;26.204;2022-08-30T01:50:01;15.30;;;6.30;;
7583;SDS011;3833;41.764;26.204;2022-08-30T01:52:29;11.70;;;6.87;;
7583;SDS011;3833;41.764;26.204;2022-08-30T01:54:56;9.50;;;6.30;;
7583;SDS011;3833;41.764;26.204;2022-08-30T01:57:23;11.83;;;6.00;;
7583;SDS011;3833;41.764;26.204;2022-08-30T01:59:53;12.30;;;6.53;;
7583;SDS011;3833;41.764;26.204;2022-08-30T02:02:22;11.13;;;5.77;;
7583;SDS011;3833;41.764;26.204;2022-08-30T02:04:52;18.17;;;6.53;;
7583;SDS011;3833;41.764;26.204;2022-08-30T02:07:19;12.73;;;6.00;;
7583;SDS011;3833;41.764;26.204;2022-08-30T02:09:46;12.93;;;6.80;;
7583;SDS011;3833;41.764;26.204;2022-08-30T02:12:13;10.03;;;6.70;;
7583;SDS011;3833;41.764;26.204;2022-08-30T02:14:40;9.60;;;5.83;;
7583;SDS011;3833;41.764;26.204;2022-08-30T02:17:09;11.60;;;6.27;;
7583;SDS011;3833;41.764;26.204;2022-08-30T02:19:37;12.17;;;6.40;;
7583;SDS011;3833;41.764;26.204;2022-08-30T02:22:04;11.77;;;6.97;;
7583;SDS011;3833;41.764;26.204;2022-08-30T02:24:32;12.00;;;7.53;;
7583;SDS011;3833;41.764;26.204;2022-08-30T02:26:59;18.27;;;7.97;;
7583;SDS011;3833;41.764;26.204;2022-08-30T02:29:27;12.37;;;7.33;;
7583;SDS011;3833;41.764;26.204;2022-08-30T02:31:54;10.83;;;7.20;;
7583;SDS011;3833;41.764;26.204;2022-08-30T02:34:22;15.17;;;7.27;;
7583;SDS011;3833;41.764;26.204;2022-08-30T02:36:49;16.73;;;8.13;;
7583;SDS011;3833;41.764;26.204;2022-08-30T02:39:16;12.77;;;8.07;;
7583;SDS011;3833;41.764;26.204;2022-08-30T02:41:43;16.33;;;8.20;;
7583;SDS011;3833;41.764;26.204;2022-08-30T02:44:10;11.07;;;8.37;;
7583;SDS011;3833;41.764;26.204;2022-08-30T02:46:37;17.00;;;8.70;;
7583;SDS011;3833;41.764;26.204;2022-08-30T02:49:04;17.80;;;8.77;;
7583;SDS011;3833;41.764;26.204;2022-08-30T02:51:34;16.17;;;9.30;;
7583;SDS011;3833;41.764;26.204;2022-08-30T02:54:04;13.73;;;9.00;;
7583;SDS011;3833;41.764;26.204;2022-08-30T02:56:31;12.30;;;9.03;;
7583;SDS011;3833;41.764;26.204;2022-08-30T02:58:58;13.57;;;8.77;;
7583;SDS011;3833;41.764;26.204;2022-08-30T03:01:25;17.83;;;8.83;;
7583;SDS011;3833;41.764;26.204;2022-08-30T03:03:52;13.20;;;8.70;;
7583;SDS011;3833;41.764;26.204;2022-08-30T03:06:19;13.73;;;8.83;;
7583;SDS011;3833;41.764;26.204;2022-08-30T03:08:47;13.87;;;8.87;;
7583;SDS011;3833;41.764;26.204;2022-08-30T03:11:14;18.47;;;9.50;;
7583;SDS011;3833;41.764;26.204;2022-08-30T03:13:40;12.97;;;9.17;;
7583;SDS011;3833;41.764;26.204;2022-08-30T03:16:10;14.03;;;9.50;;
7583;SDS011;3833;41.764;26.204;2022-08-30T03:18:37;16.70;;;9.30;;
7583;SDS011;3833;41.764;26.204;2022-08-30T03:21:08;12.87;;;9.43;;
7583;SDS011;3833;41.764;26.204;2022-08-30T03:23:35;13.63;;;9.50;;
7583;SDS011;3833;41.764;26.204;2022-08-30T03:26:04;14.00;;;9.43;;
7583;SDS011;3833;41.764;26.204;2022-08-30T03:28:31;11.30;;;9.67;;
7583;SDS011;3833;41.764;26.204;2022-08-30T03:30:58;13.90;;;10.17;;
7583;SDS011;3833;41.764;26.204;2022-08-30T03:33:25;18.00;;;10.67;;
7583;SDS011;3833;41.764;26.204;2022-08-30T03:35:52;11.57;;;9.87;;
7583;SDS011;3833;41.764;26.204;2022-08-30T03:38:19;17.10;;;11.53;;
7583;SDS011;3833;41.764;26.204;2022-08-30T03:40:45;12.60;;;11.30;;
7583;SDS011;3833;41.764;26.204;2022-08-30T03:43:13;11.93;;;10.50;;
7583;SDS011;3833;41.764;26.204;2022-08-30T03:45:41;14.17;;;10.40;;
7583;SDS011;3833;41.764;26.204;2022-08-30T03:48:08;20.70;;;11.33;;
7583;SDS011;3833;41.764;26.204;2022-08-30T03:50:35;15.93;;;10.97;;
7583;SDS011;3833;41.764;26.204;2022-08-30T03:53:02;17.20;;;11.07;;
7583;SDS011;3833;41.764;26.204;2022-08-30T03:55:31;16.23;;;10.30;;
7583;SDS011;3833;41.764;26.204;2022-08-30T03:57:58;14.70;;;10.63;;
7583;SDS011;3833;41.764;26.204;2022-08-30T04:00:26;14.67;;;11.17;;
7583;SDS011;3833;41.764;26.204;2022-08-30T04:02:53;14.50;;;10.37;;
7583;SDS011;3833;41.764;26.204;2022-08-30T04:05:20;16.93;;;11.70;;
7583;SDS011;3833;41.764;26.204;2022-08-30T04:07:47;22.90;;;10.50;;
7583;SDS011;3833;41.764;26.204;2022-08-30T04:10:14;17.70;;;11.27;;
7583;SDS011;3833;41.764;26.204;2022-08-30T04:12:40;12.90;;;10.03;;
7583;SDS011;3833;41.764;26.204;2022-08-30T04:15:08;13.73;;;11.27;;
7583;SDS011;3833;41.764;26.204;2022-08-30T04:17:38;15.37;;;11.07;;
7583;SDS011;3833;41.764;26.204;2022-08-30T04:20:05;15.77;;;11.33;;
7583;SDS011;3833;41.764;26.204;2022-08-30T04:22:32;16.30;;;12.40;;
7583;SDS011;3833;41.764;26.204;2022-08-30T04:25:00;18.77;;;11.10;;
7583;SDS011;3833;41.764;26.204;2022-08-30T04:27:27;21.57;;;11.97;;
7583;SDS011;3833;41.764;26.204;2022-08-30T04:29:54;16.23;;;12.33;;
7583;SDS011;3833;41.764;26.204;2022-08-30T04:32:21;17.47;;;11.53;;
7583;SDS011;3833;41.764;26.204;2022-08-30T04:34:49;15.80;;;11.97;;
7583;SDS011;3833;41.764;26.204;2022-08-30T04:37:21;16.27;;;12.13;;
7583;SDS011;3833;41.764;26.204;2022-08-30T04:39:48;17.63;;;11.60;;
7583;SDS011;3833;41.764;26.204;2022-08-30T04:42:15;19.40;;;12.60;;
7583;SDS011;3833;41.764;26.204;2022-08-30T04:44:42;18.73;;;13.43;;
7583;SDS011;3833;41.764;26.204;2022-08-30T04:47:09;20.77;;;12.80;;
7583;SDS011;3833;41.764;26.204;2022-08-30T04:49:36;20.50;;;12.10;;
7583;SDS011;3833;41.764;26.204;2022-08-30T04:52:04;26.03;;;13.70;;
7583;SDS011;3833;41.764;26.204;2022-08-30T04:54:33;23.77;;;12.87;;
7583;SDS011;3833;41.764;26.204;2022-08-30T04:57:00;13.70;;;11.33;;
7583;SDS011;3833;41.764;26.204;2022-08-30T04:59:30;19.30;;;12.73;;
7583;SDS011;3833;41.764;26.204;2022-08-30T05:01:57;16.93;;;12.43;;
7583;SDS011;3833;41.764;26.204;2022-08-30T05:04:24;16.03;;;12.77;;
7583;SDS011;3833;41.764;26.204;2022-08-30T05:06:51;14.83;;;12.00;;
7583;SDS011;3833;41.764;26.204;2022-08-30T05:09:19;20.50;;;12.53;;
7583;SDS011;3833;41.764;26.204;2022-08-30T05:11:46;16.63;;;12.60;;
7583;SDS011;3833;41.764;26.204;2022-08-30T05:14:13;15.17;;;13.37;;
7583;SDS011;3833;41.764;26.204;2022-08-30T05:16:40;19.13;;;12.27;;
7583;SDS011;3833;41.764;26.204;2022-08-30T05:19:07;21.20;;;13.27;;
7583;SDS011;3833;41.764;26.204;2022-08-30T05:21:34;23.87;;;12.67;;
7583;SDS011;3833;41.764;26.204;2022-08-30T05:24:01;19.53;;;12.73;;
7583;SDS011;3833;41.764;26.204;2022-08-30T05:26:30;17.63;;;11.10;;
7583;SDS011;3833;41.764;26.204;2022-08-30T05:28:59;19.63;;;12.33;;
7583;SDS011;3833;41.764;26.204;2022-08-30T05:31:27;15.80;;;11.37;;
7583;SDS011;3833;41.764;26.204;2022-08-30T05:33:56;16.30;;;11.43;;
7583;SDS011;3833;41.764;26.204;2022-08-30T05:36:24;16.43;;;11.07;;
7583;SDS011;3833;41.764;26.204;2022-08-30T05:38:52;15.10;;;10.20;;
7583;SDS011;3833;41.764;26.204;2022-08-30T05:41:20;16.80;;;12.00;;
7583;SDS011;3833;41.764;26.204;2022-08-30T05:43:50;14.30;;;10.73;;
7583;SDS011;3833;41.764;26.204;2022-08-30T05:46:18;12.57;;;10.27;;
7583;SDS011;3833;41.764;26.204;2022-08-30T05:48:46;17.83;;;10.93;;
7583;SDS011;3833;41.764;26.204;2022-08-30T05:51:14;17.43;;;11.10;;
7583;SDS011;3833;41.764;26.204;2022-08-30T05:53:42;15.07;;;9.93;;
7583;SDS011;3833;41.764;26.204;2022-08-30T05:56:11;14.77;;;11.30;;
7583;SDS011;3833;41.764;26.204;2022-08-30T05:58:40;18.70;;;10.73;;
7583;SDS011;3833;41.764;26.204;2022-08-30T06:01:08;39.07;;;11.70;;
7583;SDS011;3833;41.764;26.204;2022-08-30T06:03:45;30.67;;;10.63;;
7583;SDS011;3833;41.764;26.204;2022-08-30T06:06:12;29.50;;;11.13;;
7583;SDS011;3833;41.764;26.204;2022-08-30T06:08:39;15.10;;;10.93;;
7583;SDS011;3833;41.764;26.204;2022-08-30T06:11:06;16.30;;;10.73;;
7583;SDS011;3833;41.764;26.204;2022-08-30T06:13:33;17.20;;;10.80;;
7583;SDS011;3833;41.764;26.204;2022-08-30T06:16:00;16.17;;;9.10;;
7583;SDS011;3833;41.764;26.204;2022-08-30T06:18:31;14.70;;;10.37;;
7583;SDS011;3833;41.764;26.204;2022-08-30T06:20:57;17.70;;;11.00;;
7583;SDS011;3833;41.764;26.204;2022-08-30T06:23:24;21.57;;;10.90;;
7583;SDS011;3833;41.764;26.204;2022-08-30T06:25:52;19.53;;;9.67;;
7583;SDS011;3833;41.764;26.204;2022-08-30T06:28:19;20.03;;;9.67;;
7583;SDS011;3833;41.764;26.204;2022-08-30T06:30:46;19.30;;;9.90;;
7583;SDS011;3833;41.764;26.204;2022-08-30T06:33:13;14.90;;;10.10;;
7583;SDS011;3833;41.764;26.204;2022-08-30T06:35:41;15.00;;;9.17;;
7583;SDS011;3833;41.764;26.204;2022-08-30T06:38:08;14.03;;;9.33;;
7583;SDS011;3833;41.764;26.204;2022-08-30T06:40:35;27.60;;;11.77;;
7583;SDS011;3833;41.764;26.204;2022-08-30T06:43:02;18.67;;;10.40;;
7583;SDS011;3833;41.764;26.204;2022-08-30T06:45:29;19.80;;;10.43;;
7583;SDS011;3833;41.764;26.204;2022-08-30T06:47:57;22.63;;;11.17;;
7583;SDS011;3833;41.764;26.204;2022-08-30T06:50:23;14.50;;;9.67;;
7583;SDS011;3833;41.764;26.204;2022-08-30T06:52:52;22.93;;;10.80;;
7583;SDS011;3833;41.764;26.204;2022-08-30T06:55:19;21.80;;;10.73;;
7583;SDS011;3833;41.764;26.204;2022-08-30T06:57:46;14.30;;;9.43;;
7583;SDS011;3833;41.764;26.204;2022-08-30T07:00:14;23.23;;;9.13;;
7583;SDS011;3833;41.764;26.204;2022-08-30T07:02:42;20.50;;;9.07;;
7583;SDS011;3833;41.764;26.204;2022-08-30T07:05:09;14.73;;;8.30;;
7583;SDS011;3833;41.764;26.204;2022-08-30T07:07:37;12.23;;;8.53;;
7583;SDS011;3833;41.764;26.204;2022-08-30T07:10:06;16.67;;;8.37;;
7583;SDS011;3833;41.764;26.204;2022-08-30T07:12:34;18.47;;;8.47;;
7583;SDS011;3833;41.764;26.204;2022-08-30T07:15:01;21.27;;;8.97;;
7583;SDS011;3833;41.764;26.204;2022-08-30T07:17:31;14.17;;;8.20;;
7583;SDS011;3833;41.764;26.204;2022-08-30T07:20:16;20.53;;;7.87;;
7583;SDS011;3833;41.764;26.204;2022-08-30T07:22:44;19.33;;;8.07;;
7583;SDS011;3833;41.764;26.204;2022-08-30T07:25:12;12.40;;;7.33;;
7583;SDS011;3833;41.764;26.204;2022-08-30T07:27:40;18.83;;;7.33;;
7583;SDS011;3833;41.764;26.204;2022-08-30T07:30:08;19.83;;;7.13;;
7583;SDS011;3833;41.764;26.204;2022-08-30T07:32:35;20.17;;;8.13;;
7583;SDS011;3833;41.764;26.204;2022-08-30T07:35:03;18.67;;;6.73;;
7583;SDS011;3833;41.764;26.204;2022-08-30T07:37:30;17.90;;;7.37;;
7583;SDS011;3833;41.764;26.204;2022-08-30T07:39:57;20.53;;;6.57;;
7583;SDS011;3833;41.764;26.204;2022-08-30T07:42:25;18.37;;;6.73;;
7583;SDS011;3833;41.764;26.204;2022-08-30T07:44:52;11.30;;;6.53;;
7583;SDS011;3833;41.764;26.204;2022-08-30T07:47:19;15.73;;;6.47;;
7583;SDS011;3833;41.764;26.204;2022-08-30T07:49:48;18.13;;;7.37;;
7583;SDS011;3833;41.764;26.204;2022-08-30T07:52:15;17.23;;;6.80;;
7583;SDS011;3833;41.764;26.204;2022-08-30T07:54:42;22.17;;;7.97;;
7583;SDS011;3833;41.764;26.204;2022-08-30T07:57:09;12.70;;;6.07;;
7583;SDS011;3833;41.764;26.204;2022-08-30T07:59:37;18.10;;;6.23;;
7583;SDS011;3833;41.764;26.204;2022-08-30T08:02:04;20.03;;;7.17;;
7583;SDS011;3833;41.764;26.204;2022-08-30T08:04:31;20.93;;;7.30;;
7583;SDS011;3833;41.764;26.204;2022-08-30T08:06:59;12.23;;;7.07;;
7583;SDS011;3833;41.764;26.204;2022-08-30T08:09:26;17.47;;;6.67;;
7583;SDS011;3833;41.764;26.204;2022-08-30T08:11:53;17.40;;;7.37;;
7583;SDS011;3833;41.764;26.204;2022-08-30T08:14:20;15.00;;;7.37;;
7583;SDS011;3833;41.764;26.204;2022-08-30T08:16:49;14.10;;;6.53;;
7583;SDS011;3833;41.764;26.204;2022-08-30T08:19:16;13.50;;;6.93;;
7583;SDS011;3833;41.764;26.204;2022-08-30T08:21:44;13.30;;;6.47;;
7583;SDS011;3833;41.764;26.204;2022-08-30T08:24:11;11.83;;;6.03;;
7583;SDS011;3833;41.764;26.204;2022-08-30T08:26:38;12.77;;;6.63;;
7583;SDS011;3833;41.764;26.204;2022-08-30T08:29:06;18.23;;;6.73;;
7583;SDS011;3833;41.764;26.204;2022-08-30T08:31:34;21.00;;;6.27;;
7583;SDS011;3833;41.764;26.204;2022-08-30T08:34:02;15.17;;;5.37;;
7583;SDS011;3833;41.764;26.204;2022-08-30T08:36:30;15.27;;;5.73;;
7583;SDS011;3833;41.764;26.204;2022-08-30T08:38:58;17.20;;;5.80;;
7583;SDS011;3833;41.764;26.204;2022-08-30T08:41:28;18.10;;;5.67;;
7583;SDS011;3833;41.764;26.204;2022-08-30T08:44:04;16.13;;;5.97;;
7583;SDS011;3833;41.764;26.204;2022-08-30T08:46:40;14.17;;;4.90;;
7583;SDS011;3833;41.764;26.204;2022-08-30T08:49:16;17.03;;;5.40;;
7583;SDS011;3833;41.764;26.204;2022-08-30T08:51:43;17.03;;;5.63;;
7583;SDS011;3833;41.764;26.204;2022-08-30T08:54:29;21.50;;;5.63;;
7583;SDS011;3833;41.764;26.204;2022-08-30T08:57:02;19.40;;;5.20;;
7583;SDS011;3833;41.764;26.204;2022-08-30T08:59:29;11.83;;;4.83;;
7583;SDS011;3833;41.764;26.204;2022-08-30T09:01:57;19.90;;;5.47;;
7583;SDS011;3833;41.764;26.204;2022-08-30T09:04:31;12.40;;;4.80;;
7583;SDS011;3833;41.764;26.204;2022-08-30T09:07:02;18.10;;;6.57;;
7583;SDS011;3833;41.764;26.204;2022-08-30T09:09:35;12.20;;;5.10;;
7583;SDS011;3833;41.764;26.204;2022-08-30T09:12:05;9.83;;;4.73;;
7583;SDS011;3833;41.764;26.204;2022-08-30T09:14:34;13.33;;;5.50;;
7583;SDS011;3833;41.764;26.204;2022-08-30T09:17:03;9.70;;;4.90;;
7583;SDS011;3833;41.764;26.204;2022-08-30T09:19:40;14.80;;;5.13;;
7583;SDS011;3833;41.764;26.204;2022-08-30T09:25:01;11.83;;;5.57;;
7583;SDS011;3833;41.764;26.204;2022-08-30T09:27:50;20.60;;;5.37;;
7583;SDS011;3833;41.764;26.204;2022-08-30T09:30:18;23.13;;;5.97;;
7583;SDS011;3833;41.764;26.204;2022-08-30T09:32:49;18.53;;;6.03;;
7583;SDS011;3833;41.764;26.204;2022-08-30T09:35:20;11.10;;;4.13;;
7583;SDS011;3833;41.764;26.204;2022-08-30T09:37:51;32.47;;;5.17;;
7583;SDS011;3833;41.764;26.204;2022-08-30T09:40:21;14.27;;;4.57;;
7583;SDS011;3833;41.764;26.204;2022-08-30T09:43:05;12.43;;;4.73;;
7583;SDS011;3833;41.764;26.204;2022-08-30T09:45:39;10.73;;;5.00;;
7583;SDS011;3833;41.764;26.204;2022-08-30T09:48:22;15.00;;;5.93;;
7583;SDS011;3833;41.764;26.204;2022-08-30T09:50:57;18.50;;;5.47;;
7583;SDS011;3833;41.764;26.204;2022-08-30T09:53:42;23.37;;;5.20;;
7583;SDS011;3833;41.764;26.204;2022-08-30T09:56:22;16.77;;;4.87;;
7583;SDS011;3833;41.764;26.204;2022-08-30T09:58:57;12.50;;;5.30;;
7583;SDS011;3833;41.764;26.204;2022-08-30T10:01:32;11.73;;;5.13;;
7583;SDS011;3833;41.764;26.204;2022-08-30T10:04:05;15.03;;;4.80;;
7583;SDS011;3833;41.764;26.204;2022-08-30T10:06:40;11.23;;;4.70;;
7583;SDS011;3833;41.764;26.204;2022-08-30T10:09:15;13.10;;;5.87;;
7583;SDS011;3833;41.764;26.204;2022-08-30T10:11:52;12.07;;;5.10;;
7583;SDS011;3833;41.764;26.204;2022-08-30T10:17:17;12.63;;;5.23;;
7583;SDS011;3833;41.764;26.204;2022-08-30T10:20:01;16.17;;;5.27;;
7583;SDS011;3833;41.764;26.204;2022-08-30T10:22:39;15.17;;;5.13;;
7583;SDS011;3833;41.764;26.204;2022-08-30T10:25:12;10.70;;;4.33;;
7583;SDS011;3833;41.764;26.204;2022-08-30T10:27:44;9.03;;;4.40;;
7583;SDS011;3833;41.764;26.204;2022-08-30T10:30:16;11.03;;;4.43;;
7583;SDS011;3833;41.764;26.204;2022-08-30T10:32:46;13.13;;;4.50;;
7583;SDS011;3833;41.764;26.204;2022-08-30T10:35:16;25.70;;;6.37;;
7583;SDS011;3833;41.764;26.204;2022-08-30T10:37:49;14.63;;;4.97;;
7583;SDS011;3833;41.764;26.204;2022-08-30T10:40:20;13.53;;;5.50;;
7583;SDS011;3833;41.764;26.204;2022-08-30T10:43:12;16.55;;;4.97;;
7583;SDS011;3833;41.764;26.204;2022-08-30T10:45:44;33.08;;;7.28;;
7583;SDS011;3833;41.764;26.204;2022-08-30T10:48:15;15.18;;;4.82;;
7583;SDS011;3833;41.764;26.204;2022-08-30T10:50:47;11.18;;;4.22;;
7583;SDS011;3833;41.764;26.204;2022-08-30T10:53:20;14.75;;;4.88;;
7583;SDS011;3833;41.764;26.204;2022-08-30T10:55:55;11.77;;;4.53;;
7583;SDS011;3833;41.764;26.204;2022-08-30T10:58:28;13.93;;;4.72;;
7583;SDS011;3833;41.764;26.204;2022-08-30T11:00:59;13.05;;;5.15;;
7583;SDS011;3833;41.764;26.204;2022-08-30T11:03:54;17.42;;;5.28;;
7583;SDS011;3833;41.764;26.204;2022-08-30T11:06:41;18.85;;;5.30;;
7583;SDS011;3833;41.764;26.204;2022-08-30T11:09:23;10.73;;;4.70;;
7583;SDS011;3833;41.764;26.204;2022-08-30T11:12:04;11.67;;;5.40;;
7583;SDS011;3833;41.764;26.204;2022-08-30T11:14:47;8.90;;;5.03;;
7583;SDS011;3833;41.764;26.204;2022-08-30T11:17:23;24.23;;;5.17;;
7583;SDS011;3833;41.764;26.204;2022-08-30T11:19:53;16.70;;;4.55;;
7583;SDS011;3833;41.764;26.204;2022-08-30T11:22:23;12.77;;;4.10;;
7583;SDS011;3833;41.764;26.204;2022-08-30T11:25:01;16.27;;;4.53;;
7583;SDS011;3833;41.764;26.204;2022-08-30T11:27:39;8.93;;;4.15;;
7583;SDS011;3833;41.764;26.204;2022-08-30T11:33:27;10.02;;;4.32;;
7583;SDS011;3833;41.764;26.204;2022-08-30T11:36:09;10.00;;;4.05;;
7583;SDS011;3833;41.764;26.204;2022-08-30T11:38:59;12.30;;;4.50;;
7583;SDS011;3833;41.764;26.204;2022-08-30T11:41:32;10.00;;;4.30;;
7583;SDS011;3833;41.764;26.204;2022-08-30T11:46:57;11.83;;;4.60;;
7583;SDS011;3833;41.764;26.204;2022-08-30T11:52:30;7.43;;;4.13;;
7583;SDS011;3833;41.764;26.204;2022-08-30T11:55:24;11.67;;;4.73;;
7583;SDS011;3833;41.764;26.204;2022-08-30T11:58:05;18.60;;;4.60;;
7583;SDS011;3833;41.764;26.204;2022-08-30T12:00:45;13.73;;;4.20;;
7583;SDS011;3833;41.764;26.204;2022-08-30T12:03:26;18.30;;;12.53;;
7583;SDS011;3833;41.764;26.204;2022-08-30T12:05:57;11.55;;;4.65;;
7583;SDS011;3833;41.764;26.204;2022-08-30T12:08:42;17.45;;;4.22;;
7583;SDS011;3833;41.764;26.204;2022-08-30T12:14:34;12.88;;;4.00;;
7583;SDS011;3833;41.764;26.204;2022-08-30T12:17:23;12.52;;;3.90;;
7583;SDS011;3833;41.764;26.204;2022-08-30T12:20:16;9.80;;;4.78;;
7583;SDS011;3833;41.764;26.204;2022-08-30T12:22:47;12.65;;;4.15;;
7583;SDS011;3833;41.764;26.204;2022-08-30T12:25:16;20.73;;;4.78;;
7583;SDS011;3833;41.764;26.204;2022-08-30T12:27:46;14.30;;;3.97;;
7583;SDS011;3833;41.764;26.204;2022-08-30T12:30:22;12.00;;;4.07;;
7583;SDS011;3833;41.764;26.204;2022-08-30T12:32:52;10.88;;;3.90;;
7583;SDS011;3833;41.764;26.204;2022-08-30T12:35:19;29.65;;;5.25;;
7583;SDS011;3833;41.764;26.204;2022-08-30T12:37:57;6.30;;;3.75;;
7583;SDS011;3833;41.764;26.204;2022-08-30T12:40:26;10.05;;;4.50;;
7583;SDS011;3833;41.764;26.204;2022-08-30T12:42:56;7.97;;;4.13;;
7583;SDS011;3833;41.764;26.204;2022-08-30T12:45:26;11.53;;;4.73;;
7583;SDS011;3833;41.764;26.204;2022-08-30T12:47:58;8.90;;;4.03;;
7583;SDS011;3833;41.764;26.204;2022-08-30T12:50:30;8.70;;;4.10;;
7583;SDS011;3833;41.764;26.204;2022-08-30T12:53:02;10.97;;;4.63;;
7583;SDS011;3833;41.764;26.204;2022-08-30T12:55:32;13.70;;;4.80;;
7583;SDS011;3833;41.764;26.204;2022-08-30T12:58:02;14.47;;;4.47;;
7583;SDS011;3833;41.764;26.204;2022-08-30T13:00:33;10.90;;;4.37;;
7583;SDS011;3833;41.764;26.204;2022-08-30T13:03:05;13.83;;;4.93;;
7583;SDS011;3833;41.764;26.204;2022-08-30T13:05:54;23.07;;;5.87;;
7583;SDS011;3833;41.764;26.204;2022-08-30T13:08:23;18.63;;;5.07;;
7583;SDS011;3833;41.764;26.204;2022-08-30T13:10:54;11.40;;;4.57;;
7583;SDS011;3833;41.764;26.204;2022-08-30T13:13:29;8.70;;;4.10;;
7583;SDS011;3833;41.764;26.204;2022-08-30T13:16:20;12.17;;;3.93;;
7583;SDS011;3833;41.764;26.204;2022-08-30T13:18:50;10.90;;;4.30;;
7583;SDS011;3833;41.764;26.204;2022-08-30T13:21:18;25.90;;;5.53;;
7583;SDS011;3833;41.764;26.204;2022-08-30T13:23:54;12.27;;;4.33;;
7583;SDS011;3833;41.764;26.204;2022-08-30T13:26:23;15.23;;;5.37;;
7583;SDS011;3833;41.764;26.204;2022-08-30T13:28:51;16.57;;;5.17;;
7583;SDS011;3833;41.764;26.204;2022-08-30T13:31:20;14.03;;;4.57;;
7583;SDS011;3833;41.764;26.204;2022-08-30T13:33:47;14.88;;;5.00;;
7583;SDS011;3833;41.764;26.204;2022-08-30T13:36:17;15.18;;;9.38;;
7583;SDS011;3833;41.764;26.204;2022-08-30T13:38:45;12.30;;;5.00;;
7583;SDS011;3833;41.764;26.204;2022-08-30T13:41:12;6.05;;;4.22;;
7583;SDS011;3833;41.764;26.204;2022-08-30T13:43:40;12.23;;;4.67;;
7583;SDS011;3833;41.764;26.204;2022-08-30T13:46:07;8.63;;;4.30;;
7583;SDS011;3833;41.764;26.204;2022-08-30T13:48:38;15.87;;;4.77;;
7583;SDS011;3833;41.764;26.204;2022-08-30T13:51:05;14.33;;;4.80;;
7583;SDS011;3833;41.764;26.204;2022-08-30T13:53:33;14.73;;;5.03;;
7583;SDS011;3833;41.764;26.204;2022-08-30T13:56:00;12.23;;;4.67;;
7583;SDS011;3833;41.764;26.204;2022-08-30T13:58:29;15.37;;;4.80;;
7583;SDS011;3833;41.764;26.204;2022-08-30T14:00:57;9.07;;;4.37;;
7583;SDS011;3833;41.764;26.204;2022-08-30T14:03:24;13.57;;;5.20;;
7583;SDS011;3833;41.764;26.204;2022-08-30T14:05:52;10.03;;;4.87;;
7583;SDS011;3833;41.764;26.204;2022-08-30T14:08:20;11.27;;;4.30;;
7583;SDS011;3833;41.764;26.204;2022-08-30T14:10:48;9.43;;;4.23;;
7583;SDS011;3833;41.764;26.204;2022-08-30T14:13:15;16.90;;;4.43;;
7583;SDS011;3833;41.764;26.204;2022-08-30T14:15:41;13.17;;;5.03;;
7583;SDS011;3833;41.764;26.204;2022-08-30T14:18:08;14.73;;;4.97;;
7583;SDS011;3833;41.764;26.204;2022-08-30T14:20:38;7.60;;;3.87;;
7583;SDS011;3833;41.764;26.204;2022-08-30T14:23:06;11.40;;;4.77;;
7583;SDS011;3833;41.764;26.204;2022-08-30T14:25:33;13.70;;;5.40;;
7583;SDS011;3833;41.764;26.204;2022-08-30T14:27:59;11.63;;;4.30;;
7583;SDS011;3833;41.764;26.204;2022-08-30T14:30:27;18.13;;;5.17;;
7583;SDS011;3833;41.764;26.204;2022-08-30T14:32:54;10.23;;;4.80;;
7583;SDS011;3833;41.764;26.204;2022-08-30T14:35:21;8.43;;;4.07;;
7583;SDS011;3833;41.764;26.204;2022-08-30T14:37:48;10.67;;;4.17;;
7583;SDS011;3833;41.764;26.204;2022-08-30T14:40:17;12.13;;;4.60;;
7583;SDS011;3833;41.764;26.204;2022-08-30T14:42:44;10.73;;;4.80;;
7583;SDS011;3833;41.764;26.204;2022-08-30T14:45:11;14.63;;;4.90;;
7583;SDS011;3833;41.764;26.204;2022-08-30T14:47:38;11.33;;;4.87;;
7583;SDS011;3833;41.764;26.204;2022-08-30T14:50:05;8.57;;;4.43;;
7583;SDS011;3833;41.764;26.204;2022-08-30T14:52:33;10.20;;;4.57;;
7583;SDS011;3833;41.764;26.204;2022-08-30T14:55:01;11.50;;;5.03;;
7583;SDS011;3833;41.764;26.204;2022-08-30T14:57:32;9.33;;;4.27;;
7583;SDS011;3833;41.764;26.204;2022-08-30T14:59:59;13.67;;;4.93;;
7583;SDS011;3833;41.764;26.204;2022-08-30T15:02:25;14.03;;;4.90;;
7583;SDS011;3833;41.764;26.204;2022-08-30T15:04:52;16.20;;;5.23;;
7583;SDS011;3833;41.764;26.204;2022-08-30T15:07:19;8.03;;;5.00;;
7583;SDS011;3833;41.764;26.204;2022-08-30T15:09:46;14.00;;;4.13;;
7583;SDS011;3833;41.764;26.204;2022-08-30T15:12:13;9.20;;;5.07;;
7583;SDS011;3833;41.764;26.204;2022-08-30T15:14:41;11.83;;;5.20;;
7583;SDS011;3833;41.764;26.204;2022-08-30T15:17:08;11.57;;;4.43;;
7583;SDS011;3833;41.764;26.204;2022-08-30T15:19:37;10.50;;;4.50;;